Time;durP1;ratioP1;P1;durP2;ratioP2;P2;SDS_P1;SDS_P2;PMS_P1;PMS_P2;Temp;Humidity;BMP_temperature;BMP_pressure;BME280_temperature;BME280_humidity;BME280_pressure;Samples;Min_cycle;Max_cycle;Signal;HPM_P1;HPM_P2
2022/08/21 00:01:02;;;;;;;15.60;5.10;;;16.90;1.00;;;;;;5031224;28;20756;-81
2022/08/21 00:03:52;;;;;;;11.17;5.30;;;17.00;1.00;;;;;;5030076;28;20407;-81
2022/08/21 00:07:10;;;;;;;8.70;5.67;;;16.90;1.00;;;;;;5029306;28;20479;-81
2022/08/21 00:09:37;;;;;;;11.73;5.00;;;16.90;1.00;;;;;;5021563;28;20433;-73
2022/08/21 00:12:04;;;;;;;13.30;6.07;;;16.90;1.00;;;;;;5016358;28;20893;-73
2022/08/21 00:14:30;;;;;;;10.57;5.70;;;16.90;1.00;;;;;;5026168;28;20400;-73
2022/08/21 00:16:56;;;;;;;18.07;5.47;;;16.90;1.00;;;;;;5034040;28;20456;-73
2022/08/21 00:19:24;;;;;;;8.90;5.47;;;16.80;1.00;;;;;;5032186;28;20482;-73
2022/08/21 00:21:54;;;;;;;10.47;5.53;;;16.70;1.00;;;;;;5015540;28;20437;-73
2022/08/21 00:24:34;;;;;;;10.20;5.90;;;16.80;1.00;;;;;;5015747;28;20445;-81
2022/08/21 00:27:10;;;;;;;10.53;5.53;;;16.70;1.00;;;;;;5021086;28;20743;-81
2022/08/21 00:30:16;;;;;;;12.20;5.80;;;16.70;1.00;;;;;;5027751;28;20444;-81
2022/08/21 00:32:59;;;;;;;10.17;5.87;;;16.70;1.00;;;;;;5020028;28;20399;-82
2022/08/21 00:35:58;;;;;;;11.83;6.00;;;16.60;1.00;;;;;;5028874;28;20395;-80
2022/08/21 00:38:40;;;;;;;12.13;6.23;;;16.60;1.00;;;;;;5014047;28;20498;-81
2022/08/21 00:41:11;;;;;;;11.00;5.87;;;16.60;1.00;;;;;;5023698;28;20426;-74
2022/08/21 00:43:39;;;;;;;10.20;6.10;;;16.60;1.00;;;;;;5023705;28;20378;-73
2022/08/21 00:46:06;;;;;;;30.33;6.50;;;16.60;1.00;;;;;;5016811;28;20420;-73
2022/08/21 00:48:33;;;;;;;11.37;6.70;;;16.50;1.00;;;;;;5022742;28;20459;-73
2022/08/21 00:51:16;;;;;;;14.27;6.40;;;16.50;1.00;;;;;;5018405;28;20453;-73
2022/08/21 00:53:44;;;;;;;10.30;6.30;;;16.40;1.00;;;;;;5030993;28;20402;-73
2022/08/21 00:56:12;;;;;;;12.30;6.53;;;16.30;1.00;;;;;;5027638;28;20412;-73
2022/08/21 00:58:41;;;;;;;11.33;6.60;;;16.30;1.00;;;;;;5025020;28;20405;-74
2022/08/21 01:01:08;;;;;;;11.47;6.40;;;16.30;1.00;;;;;;5028773;28;20878;-73
2022/08/21 01:03:35;;;;;;;11.70;6.53;;;16.30;1.00;;;;;;5018393;28;20378;-73
2022/08/21 01:06:10;;;;;;;11.60;6.30;;;16.30;1.00;;;;;;5017906;28;20923;-73
2022/08/21 01:08:41;;;;;;;8.70;6.30;;;16.20;1.00;;;;;;5032665;28;20890;-73
2022/08/21 01:11:22;;;;;;;9.83;5.67;;;16.20;1.00;;;;;;5035013;28;20430;-81
2022/08/21 01:13:49;;;;;;;12.77;6.30;;;16.20;1.00;;;;;;5034579;28;20405;-81
2022/08/21 01:16:48;;;;;;;8.73;6.47;;;16.20;1.00;;;;;;5024571;28;20438;-81
2022/08/21 01:19:46;;;;;;;12.33;6.40;;;16.20;1.00;;;;;;5024814;28;20444;-81
2022/08/21 01:22:17;;;;;;;11.70;7.00;;;16.10;1.00;;;;;;5023934;28;20403;-82
2022/08/21 01:24:52;;;;;;;11.87;6.60;;;16.00;1.00;;;;;;5017873;28;20534;-81
2022/08/21 01:27:35;;;;;;;17.27;6.90;;;16.00;1.00;;;;;;5029349;28;20408;-81
2022/08/21 01:30:22;;;;;;;15.43;6.90;;;16.00;1.00;;;;;;5031283;28;20401;-81
2022/08/21 01:36:17;;;;;;;17.33;6.90;;;15.90;1.00;;;;;;5037233;28;20763;-82
2022/08/21 01:39:16;;;;;;;13.60;6.67;;;15.80;1.00;;;;;;5029079;28;20405;-81
2022/08/21 01:41:52;;;;;;;14.23;6.60;;;15.70;1.00;;;;;;5030077;28;20435;-81
2022/08/21 01:44:21;;;;;;;11.20;6.53;;;15.70;1.00;;;;;;5018589;28;20409;-81
2022/08/21 01:47:17;;;;;;;8.20;6.40;;;15.70;1.00;;;;;;5035730;28;20438;-81
2022/08/21 01:49:44;;;;;;;8.97;6.80;;;15.60;1.00;;;;;;5020089;28;20434;-81
2022/08/21 01:52:23;;;;;;;15.30;6.80;;;15.50;1.00;;;;;;5032469;28;20430;-81
2022/08/21 01:54:48;;;;;;;8.43;6.40;;;15.50;1.00;;;;;;5037262;28;20772;-73
2022/08/21 01:57:14;;;;;;;10.47;6.73;;;15.50;1.00;;;;;;5025745;28;20402;-73
2022/08/21 01:59:40;;;;;;;9.17;6.50;;;15.50;1.00;;;;;;5017792;28;20651;-74
2022/08/21 02:02:06;;;;;;;9.90;6.27;;;15.40;1.00;;;;;;5021146;28;20425;-73
2022/08/21 02:04:32;;;;;;;10.57;6.47;;;15.30;1.00;;;;;;5016619;28;20648;-73
2022/08/21 02:07:00;;;;;;;11.50;7.57;;;15.30;1.00;;;;;;5035650;28;20988;-73
2022/08/21 02:09:25;;;;;;;10.60;6.73;;;15.30;1.00;;;;;;5023326;28;20426;-73
2022/08/21 02:11:53;;;;;;;11.93;6.40;;;15.30;1.00;;;;;;5024484;28;20807;-73
2022/08/21 02:14:19;;;;;;;8.23;6.40;;;15.20;1.00;;;;;;5016605;28;20191;-73
2022/08/21 02:16:46;;;;;;;9.73;6.80;;;15.10;1.00;;;;;;5022778;28;20520;-73
2022/08/21 02:19:17;;;;;;;11.73;6.70;;;15.20;1.00;;;;;;5022871;28;20422;-73
2022/08/21 02:21:43;;;;;;;10.00;6.90;;;15.20;1.00;;;;;;5034588;28;20434;-73
2022/08/21 02:24:10;;;;;;;10.07;7.07;;;15.20;1.00;;;;;;5036091;28;20468;-74
2022/08/21 02:26:36;;;;;;;12.70;6.77;;;15.10;1.00;;;;;;5028789;28;20430;-74
2022/08/21 02:29:02;;;;;;;10.07;6.97;;;15.10;1.00;;;;;;5019682;28;20821;-74
2022/08/21 02:31:28;;;;;;;13.17;7.43;;;15.10;1.00;;;;;;5031461;28;20215;-73
2022/08/21 02:33:54;;;;;;;11.00;7.10;;;15.00;1.00;;;;;;5022680;28;20447;-74
2022/08/21 02:36:20;;;;;;;11.20;7.43;;;15.00;1.00;;;;;;5032883;28;20449;-74
2022/08/21 02:38:46;;;;;;;11.20;6.73;;;15.00;1.00;;;;;;5022646;28;20197;-73
2022/08/21 02:41:23;;;;;;;14.10;7.33;;;15.00;1.00;;;;;;5031279;28;20640;-73
2022/08/21 02:43:52;;;;;;;9.67;7.13;;;15.00;1.00;;;;;;5019897;28;20768;-73
2022/08/21 02:46:21;;;;;;;9.60;6.50;;;14.90;1.00;;;;;;5025209;28;20435;-73
2022/08/21 02:48:47;;;;;;;14.27;6.87;;;14.90;1.00;;;;;;5022463;28;20495;-74
2022/08/21 02:51:22;;;;;;;14.43;8.10;;;14.80;1.00;;;;;;5034511;28;20447;-73
2022/08/21 02:53:49;;;;;;;14.73;8.17;;;14.80;1.00;;;;;;5015815;28;20423;-74
2022/08/21 02:56:17;;;;;;;12.07;7.27;;;14.80;1.00;;;;;;5016744;28;20406;-74
2022/08/21 02:58:50;;;;;;;9.90;7.67;;;14.80;1.00;;;;;;5028991;28;20789;-73
2022/08/21 03:01:18;;;;;;;14.93;7.67;;;14.70;1.00;;;;;;5030108;28;20477;-74
2022/08/21 03:03:46;;;;;;;12.83;7.40;;;14.60;1.00;;;;;;5033566;28;20883;-74
2022/08/21 03:06:14;;;;;;;11.83;7.40;;;14.50;1.00;;;;;;5017039;28;20401;-74
2022/08/21 03:08:40;;;;;;;12.57;7.70;;;14.50;1.00;;;;;;5028763;28;20433;-74
2022/08/21 03:11:22;;;;;;;10.60;7.37;;;14.50;1.00;;;;;;5035324;28;20412;-81
2022/08/21 03:17:16;;;;;;;12.10;7.30;;;14.50;1.00;;;;;;5031995;28;20435;-82
2022/08/21 03:19:58;;;;;;;14.70;7.57;;;14.40;1.00;;;;;;5025945;28;20911;-82
2022/08/21 03:22:41;;;;;;;13.67;7.90;;;14.40;1.00;;;;;;5021715;28;20431;-82
2022/08/21 03:25:23;;;;;;;11.23;7.30;;;14.30;1.00;;;;;;5031701;28;20428;-81
2022/08/21 03:27:49;;;;;;;10.30;7.40;;;14.30;1.00;;;;;;5035038;28;20465;-74
2022/08/21 03:30:19;;;;;;;13.17;8.00;;;14.20;1.00;;;;;;5031274;28;20455;-74
2022/08/21 03:32:48;;;;;;;11.33;7.97;;;14.20;1.00;;;;;;5015570;28;20934;-73
2022/08/21 03:35:14;;;;;;;15.50;7.27;;;14.30;1.00;;;;;;5027432;28;20465;-74
2022/08/21 03:37:40;;;;;;;12.07;7.77;;;14.20;1.00;;;;;;5015210;28;20404;-74
2022/08/21 03:40:17;;;;;;;16.40;8.60;;;14.20;1.00;;;;;;5028551;28;20474;-74
2022/08/21 03:42:45;;;;;;;11.47;8.30;;;14.20;1.00;;;;;;5027066;28;20427;-74
2022/08/21 03:45:11;;;;;;;13.53;8.10;;;14.20;1.00;;;;;;5021337;28;20469;-73
2022/08/21 03:47:50;;;;;;;12.47;8.30;;;14.10;1.00;;;;;;5033368;28;20464;-74
2022/08/21 03:50:17;;;;;;;17.13;8.90;;;14.10;1.00;;;;;;5030434;28;20417;-74
2022/08/21 03:52:43;;;;;;;10.37;7.70;;;14.10;1.00;;;;;;5028825;28;20878;-74
2022/08/21 03:55:08;;;;;;;8.93;7.03;;;14.10;1.00;;;;;;5015870;28;20428;-74
2022/08/21 03:58:16;;;;;;;13.90;8.10;;;14.10;1.00;;;;;;5028526;28;20472;-82
2022/08/21 04:01:28;;;;;;;10.60;8.37;;;14.00;1.00;;;;;;5026557;28;20172;-81
2022/08/21 04:07:15;;;;;;;12.50;8.37;;;13.90;1.00;;;;;;5021160;28;20415;-81
2022/08/21 04:09:46;;;;;;;10.30;6.97;;;13.90;1.00;;;;;;5034123;28;20926;-82
2022/08/21 04:12:13;;;;;;;17.37;8.10;;;13.90;1.00;;;;;;5019584;28;20632;-74
2022/08/21 04:14:38;;;;;;;15.43;7.90;;;13.90;1.00;;;;;;5033217;28;20419;-74
2022/08/21 04:17:05;;;;;;;11.97;7.57;;;13.90;1.00;;;;;;5021035;28;20411;-74
2022/08/21 04:19:31;;;;;;;10.90;7.87;;;13.90;1.00;;;;;;5021128;28;20185;-74
2022/08/21 04:21:57;;;;;;;9.83;7.70;;;13.90;1.00;;;;;;5026680;28;20834;-74
2022/08/21 04:24:23;;;;;;;14.27;7.60;;;13.90;1.00;;;;;;5021455;28;20434;-74
2022/08/21 04:26:48;;;;;;;10.87;7.30;;;13.90;1.00;;;;;;5014740;28;20730;-74
2022/08/21 04:29:14;;;;;;;13.70;8.27;;;13.90;1.00;;;;;;5014336;28;20561;-74
2022/08/21 04:31:40;;;;;;;13.47;7.10;;;13.90;1.00;;;;;;5027036;28;20203;-74
2022/08/21 04:34:05;;;;;;;14.57;7.90;;;13.90;1.00;;;;;;5020159;28;20180;-74
2022/08/21 04:36:32;;;;;;;10.87;7.30;;;13.90;1.00;;;;;;5016186;28;20264;-74
2022/08/21 04:38:58;;;;;;;14.63;7.80;;;13.90;1.00;;;;;;5026243;28;20181;-74
2022/08/21 04:41:25;;;;;;;12.53;7.30;;;13.80;1.00;;;;;;5020838;28;20427;-74
2022/08/21 04:43:54;;;;;;;12.53;8.63;;;13.80;1.00;;;;;;5032978;28;20431;-74
2022/08/21 04:46:21;;;;;;;14.53;8.10;;;13.80;1.00;;;;;;5020034;28;20433;-74
2022/08/21 04:48:48;;;;;;;15.97;8.87;;;13.80;1.00;;;;;;5022397;28;21120;-74
2022/08/21 04:51:22;;;;;;;17.80;8.90;;;13.80;1.00;;;;;;5016272;28;20416;-74
2022/08/21 04:53:58;;;;;;;15.33;8.50;;;13.80;1.00;;;;;;5026668;28;20453;-74
2022/08/21 04:56:34;;;;;;;12.13;7.43;;;13.90;1.00;;;;;;5020960;28;20400;-74
2022/08/21 04:59:11;;;;;;;13.23;8.20;;;13.90;1.00;;;;;;5021235;28;20435;-74
2022/08/21 05:01:46;;;;;;;13.50;8.00;;;14.00;1.00;;;;;;5015843;28;20436;-74
2022/08/21 05:04:16;;;;;;;13.27;6.63;;;14.00;1.00;;;;;;5029698;28;20438;-74
2022/08/21 05:06:45;;;;;;;11.70;7.70;;;14.00;1.00;;;;;;5019396;28;20427;-74
2022/08/21 05:09:18;;;;;;;14.73;7.20;;;14.10;1.00;;;;;;5013726;28;20458;-74
2022/08/21 05:11:44;;;;;;;12.43;7.50;;;14.10;1.00;;;;;;5021900;28;20422;-75
2022/08/21 05:14:11;;;;;;;10.27;7.07;;;14.20;1.00;;;;;;5031495;28;20426;-74
2022/08/21 05:16:38;;;;;;;11.53;7.13;;;14.20;1.00;;;;;;5032901;28;20462;-74
2022/08/21 05:19:08;;;;;;;13.60;7.20;;;14.30;1.00;;;;;;5019011;28;20409;-74
2022/08/21 05:21:36;;;;;;;12.83;7.30;;;14.40;1.00;;;;;;5018545;28;20500;-75
2022/08/21 05:24:02;;;;;;;14.47;7.60;;;14.50;1.00;;;;;;5014592;28;20449;-74
2022/08/21 05:26:30;;;;;;;12.50;7.43;;;14.60;1.00;;;;;;5025450;28;20797;-80
2022/08/21 05:28:56;;;;;;;11.47;7.10;;;14.60;1.00;;;;;;5027513;28;20938;-81
2022/08/21 05:31:22;;;;;;;10.03;6.80;;;14.70;1.00;;;;;;5022603;28;21070;-82
2022/08/21 05:37:12;;;;;;;9.00;6.73;;;14.90;1.00;;;;;;5015066;28;20199;-75
2022/08/21 05:39:41;;;;;;;12.40;6.80;;;15.00;1.00;;;;;;5024818;28;20896;-75
2022/08/21 05:42:17;;;;;;;9.70;6.53;;;15.10;1.00;;;;;;5024985;28;20431;-76
2022/08/21 05:44:47;;;;;;;12.63;7.07;;;15.20;1.00;;;;;;5015122;28;20454;-76
2022/08/21 05:47:34;;;;;;;18.43;6.93;;;15.30;1.00;;;;;;5033684;28;20908;-77
2022/08/21 05:50:16;;;;;;;11.40;6.10;;;15.40;1.00;;;;;;5022120;28;20441;-76
2022/08/21 05:52:47;;;;;;;9.07;6.33;;;15.50;1.00;;;;;;5023245;28;20451;-77
2022/08/21 05:55:16;;;;;;;15.37;6.90;;;15.60;1.00;;;;;;5018233;28;20423;-76
2022/08/21 05:57:46;;;;;;;11.50;6.80;;;15.70;1.00;;;;;;5029385;28;20388;-75
2022/08/21 06:00:29;;;;;;;12.83;6.47;;;15.80;1.00;;;;;;5026530;28;20870;-75
2022/08/21 06:02:59;;;;;;;8.10;5.37;;;15.90;1.00;;;;;;5025346;28;20498;-75
2022/08/21 06:05:29;;;;;;;11.57;6.53;;;16.00;1.00;;;;;;5022846;28;20788;-75
2022/08/21 06:07:58;;;;;;;11.10;6.47;;;16.20;1.00;;;;;;5023395;28;20429;-75
2022/08/21 06:10:24;;;;;;;13.20;6.27;;;16.30;1.00;;;;;;5022728;28;20517;-75
2022/08/21 06:12:59;;;;;;;16.90;6.00;;;16.40;1.00;;;;;;5029968;28;20447;-75
2022/08/21 06:15:35;;;;;;;10.63;5.93;;;16.50;1.00;;;;;;5036527;28;20229;-76
2022/08/21 06:18:46;;;;;;;16.07;5.83;;;16.70;1.00;;;;;;5026198;28;20479;-76
2022/08/21 06:21:23;;;;;;;10.47;5.50;;;16.90;1.00;;;;;;5025289;28;20438;-76
2022/08/21 06:24:22;;;;;;;11.83;6.00;;;17.20;1.00;;;;;;5023623;28;20400;-76
2022/08/21 06:26:48;;;;;;;15.00;5.90;;;17.30;1.00;;;;;;5018262;28;20493;-75
2022/08/21 06:29:17;;;;;;;18.37;6.20;;;17.40;1.00;;;;;;5036649;28;20599;-75
2022/08/21 06:31:52;;;;;;;9.77;5.83;;;17.60;1.00;;;;;;5029054;28;20186;-75
2022/08/21 06:34:39;;;;;;;8.13;5.43;;;17.70;1.00;;;;;;5026020;28;20384;-75
2022/08/21 06:37:11;;;;;;;9.77;5.60;;;17.90;1.00;;;;;;5036037;28;20447;-75
2022/08/21 06:39:36;;;;;;;11.30;5.30;;;18.00;1.00;;;;;;5022530;28;20786;-75
2022/08/21 06:42:02;;;;;;;10.83;5.73;;;18.20;1.00;;;;;;5028593;28;20454;-75
2022/08/21 06:44:30;;;;;;;8.83;5.27;;;18.30;1.00;;;;;;5028328;28;20533;-76
2022/08/21 06:46:59;;;;;;;10.50;5.80;;;18.50;1.00;;;;;;5022673;28;20898;-76
2022/08/21 06:49:28;;;;;;;10.23;5.90;;;18.70;1.00;;;;;;5021346;28;20982;-75
2022/08/21 06:52:12;;;;;;;9.40;5.97;;;18.80;1.00;;;;;;5027949;28;20926;-75
2022/08/21 06:54:41;;;;;;;15.20;6.60;;;19.00;1.00;;;;;;5020862;28;20430;-75
2022/08/21 06:57:34;;;;;;;10.10;5.67;;;19.10;1.00;;;;;;5016056;28;20431;-75
2022/08/21 07:00:01;;;;;;;11.27;6.80;;;19.20;1.00;;;;;;5017881;28;20397;-76
2022/08/21 07:02:34;;;;;;;13.83;7.47;;;19.40;1.00;;;;;;5026811;28;20414;-76
2022/08/21 07:05:10;;;;;;;10.10;5.97;;;19.60;1.00;;;;;;5015721;28;20875;-77
2022/08/21 07:07:41;;;;;;;10.50;6.40;;;19.80;1.00;;;;;;5032693;28;20854;-76
2022/08/21 07:10:07;;;;;;;10.30;7.03;;;19.90;1.00;;;;;;5029966;28;20831;-77
2022/08/21 07:12:41;;;;;;;12.30;6.53;;;20.00;1.00;;;;;;5026449;28;20821;-75
2022/08/21 07:15:22;;;;;;;10.87;6.90;;;20.20;1.00;;;;;;5027586;28;20713;-81
2022/08/21 07:17:59;;;;;;;12.40;7.40;;;20.30;1.00;;;;;;5023002;28;20406;-81
2022/08/21 07:20:30;;;;;;;7.77;6.07;;;20.40;1.00;;;;;;5020559;28;20424;-81
2022/08/21 07:23:02;;;;;;;13.47;7.13;;;20.60;1.00;;;;;;5019577;28;20530;-81
2022/08/21 07:25:29;;;;;;;11.70;5.67;;;20.70;1.00;;;;;;5028335;28;20413;-81
2022/08/21 07:28:34;;;;;;;10.17;6.23;;;20.90;1.00;;;;;;5024357;28;20865;-88
2022/08/21 07:31:23;;;;;;;11.30;6.10;;;21.10;1.00;;;;;;5024907;28;20460;-82
2022/08/21 07:33:59;;;;;;;12.53;6.27;;;21.30;1.00;;;;;;5026131;28;20435;-81
2022/08/21 07:36:25;;;;;;;8.03;5.83;;;21.40;1.00;;;;;;5028584;28;20427;-82
2022/08/21 07:42:12;;;;;;;12.37;6.07;;;21.70;1.00;;;;;;5014731;28;20405;-80
2022/08/21 07:44:55;;;;;;;18.80;7.07;;;21.80;1.00;;;;;;5018077;28;20776;-77
2022/08/21 07:47:29;;;;;;;7.70;5.80;;;21.90;1.00;;;;;;5025051;28;20213;-77
2022/08/21 07:50:23;;;;;;;8.40;5.60;;;22.00;1.00;;;;;;5018856;28;20741;-76
2022/08/21 07:52:48;;;;;;;20.03;7.40;;;22.10;1.00;;;;;;5021263;28;20406;-76
2022/08/21 07:55:17;;;;;;;10.87;6.90;;;22.10;1.00;;;;;;5026724;28;20749;-77
2022/08/21 07:57:44;;;;;;;13.67;7.07;;;22.20;1.00;;;;;;5016047;28;20206;-76
2022/08/21 08:00:41;;;;;;;7.90;6.50;;;22.30;1.00;;;;;;5034686;28;20936;-76
2022/08/21 08:03:11;;;;;;;9.73;6.63;;;22.50;1.00;;;;;;5019989;28;20921;-77
2022/08/21 08:05:41;;;;;;;11.60;7.17;;;22.60;1.00;;;;;;5026890;28;20418;-77
2022/08/21 08:08:06;;;;;;;15.73;7.27;;;22.80;1.00;;;;;;5026337;28;20446;-76
2022/08/21 08:10:36;;;;;;;17.97;7.40;;;22.90;1.00;;;;;;5027329;28;20408;-76
2022/08/21 08:16:24;;;;;;;11.50;6.00;;;23.10;1.00;;;;;;5023707;28;20411;-79
2022/08/21 08:18:55;;;;;;;8.20;5.63;;;23.20;1.00;;;;;;5022981;28;20412;-80
2022/08/21 08:21:23;;;;;;;10.10;5.97;;;23.30;1.00;;;;;;5023920;28;20653;-80
2022/08/21 08:24:22;;;;;;;12.30;6.40;;;23.50;1.00;;;;;;5027597;28;20414;-80
2022/08/21 08:27:40;;;;;;;14.33;7.30;;;23.60;1.00;;;;;;5027267;28;20439;-80
2022/08/21 08:30:12;;;;;;;9.23;6.73;;;23.60;1.00;;;;;;5019454;28;20764;-81
2022/08/21 08:32:48;;;;;;;14.07;6.50;;;23.60;1.00;;;;;;5017939;28;21117;-80
2022/08/21 08:38:35;;;;;;;12.83;7.23;;;23.70;1.00;;;;;;5027165;28;20408;-80
2022/08/21 08:41:37;;;;;;;7.13;6.03;;;23.80;1.00;;;;;;5023448;28;20420;-80
2022/08/21 08:47:26;;;;;;;13.20;6.63;;;24.00;1.00;;;;;;5024120;28;20396;-82
2022/08/21 08:50:27;;;;;;;9.13;6.67;;;24.00;1.00;;;;;;5029834;28;20506;-82
2022/08/21 08:53:06;;;;;;;10.30;6.33;;;23.80;1.00;;;;;;5030843;28;20448;-82
2022/08/21 08:55:39;;;;;;;13.07;5.67;;;23.60;1.00;;;;;;5020401;28;20458;-82
2022/08/21 09:01:27;;;;;;;9.93;4.60;;;23.60;1.00;;;;;;5032820;28;20421;-83
2022/08/21 09:04:05;;;;;;;13.73;4.93;;;23.70;1.00;;;;;;5031987;28;20822;-82
2022/08/21 09:07:05;;;;;;;10.30;5.43;;;23.80;1.00;;;;;;5030402;28;20255;-82
2022/08/21 09:10:04;;;;;;;7.87;5.10;;;23.90;1.00;;;;;;5030397;28;20998;-83
2022/08/21 09:13:03;;;;;;;11.03;6.03;;;24.00;1.00;;;;;;5031966;28;20783;-82
2022/08/21 09:15:43;;;;;;;16.63;5.00;;;24.00;1.00;;;;;;5030641;28;20413;-78
2022/08/21 09:18:38;;;;;;;10.50;4.90;;;24.00;1.00;;;;;;5032449;28;20439;-78
2022/08/21 09:21:40;;;;;;;11.00;5.00;;;24.20;1.00;;;;;;5032022;28;20424;-78
2022/08/21 09:24:31;;;;;;;12.03;4.70;;;24.20;1.00;;;;;;5032998;28;20437;-79
2022/08/21 09:27:10;;;;;;;8.33;4.33;;;24.40;1.00;;;;;;5032709;28;20901;-78
2022/08/21 09:29:42;;;;;;;11.93;4.93;;;24.70;1.00;;;;;;5030013;28;20478;-78
2022/08/21 09:32:18;;;;;;;10.33;4.33;;;25.10;1.00;;;;;;5033916;28;20422;-78
2022/08/21 09:34:59;;;;;;;16.33;6.00;;;25.40;1.00;;;;;;5030319;28;20441;-79
2022/08/21 09:37:31;;;;;;;12.57;4.30;;;25.60;1.00;;;;;;5023645;28;21226;-79
2022/08/21 09:39:58;;;;;;;10.67;4.63;;;25.60;1.00;;;;;;5028184;28;20846;-79
2022/08/21 09:42:31;;;;;;;10.13;5.37;;;25.30;1.00;;;;;;5025602;28;20453;-79
2022/08/21 09:45:16;;;;;;;16.73;4.97;;;25.00;1.00;;;;;;5028672;28;20458;-76
2022/08/21 09:47:43;;;;;;;6.83;4.90;;;24.80;1.00;;;;;;5026753;28;20435;-74
2022/08/21 09:50:17;;;;;;;8.10;4.50;;;24.80;1.00;;;;;;5014000;28;20429;-74
2022/08/21 09:52:50;;;;;;;7.20;3.80;;;24.80;1.00;;;;;;5013626;28;20772;-74
2022/08/21 09:58:06;;;;;;;11.30;4.57;;;25.00;1.00;;;;;;5022392;28;20770;-74
2022/08/21 10:00:34;;;;;;;4.83;3.30;;;25.20;1.00;;;;;;5021547;28;20503;-82
2022/08/21 10:03:20;;;;;;;4.87;3.20;;;25.30;1.00;;;;;;5016378;28;20421;-82
2022/08/21 10:05:56;;;;;;;11.20;3.83;;;25.50;1.00;;;;;;5034966;28;20893;-81
2022/08/21 10:08:24;;;;;;;6.43;3.73;;;25.70;1.00;;;;;;5022271;28;20461;-82
2022/08/21 10:10:54;;;;;;;7.13;3.80;;;25.70;1.00;;;;;;5023277;28;20423;-82
2022/08/21 10:13:19;;;;;;;6.07;3.80;;;25.80;1.00;;;;;;5021232;28;20424;-82
2022/08/21 10:16:08;;;;;;;5.63;4.00;;;26.10;1.00;;;;;;5016311;28;20419;-82
2022/08/21 10:18:37;;;;;;;7.77;4.23;;;26.10;1.00;;;;;;5016221;28;20178;-82
2022/08/21 10:21:22;;;;;;;13.07;4.97;;;26.00;1.00;;;;;;5015849;28;20508;-82
2022/08/21 10:24:19;;;;;;;7.07;3.90;;;25.70;1.00;;;;;;5016236;28;20910;-82
2022/08/21 10:27:03;;;;;;;12.20;4.00;;;25.60;1.00;;;;;;5020111;28;20852;-82
2022/08/21 10:29:44;;;;;;;10.50;4.10;;;25.60;1.00;;;;;;5022764;28;20472;-82
2022/08/21 10:32:40;;;;;;;9.60;4.10;;;25.80;1.00;;;;;;5035558;28;20423;-82
2022/08/21 10:35:17;;;;;;;10.53;4.33;;;25.90;1.00;;;;;;5035253;28;20707;-82
2022/08/21 10:38:26;;;;;;;7.97;4.00;;;26.10;1.00;;;;;;5034222;28;20410;-82
2022/08/21 10:41:03;;;;;;;10.43;4.23;;;26.40;1.00;;;;;;5029165;28;20429;-82
2022/08/21 10:43:59;;;;;;;13.23;3.73;;;26.50;1.00;;;;;;5035208;28;20408;-83
2022/08/21 10:46:58;;;;;;;7.63;3.53;;;26.30;1.00;;;;;;5040989;28;20802;-82
2022/08/21 10:49:39;;;;;;;9.20;3.97;;;26.20;1.00;;;;;;5034998;28;20503;-81
2022/08/21 10:52:20;;;;;;;6.30;3.60;;;26.40;1.00;;;;;;5020194;28;20431;-82
2022/08/21 10:55:03;;;;;;;9.20;4.40;;;26.40;1.00;;;;;;5030455;28;20426;-82
2022/08/21 10:57:54;;;;;;;9.53;3.67;;;26.40;1.00;;;;;;5015269;28;20819;-82
2022/08/21 11:00:29;;;;;;;6.43;3.40;;;26.60;1.00;;;;;;5015434;28;20415;-73
2022/08/21 11:03:05;;;;;;;9.13;4.63;;;26.80;1.00;;;;;;5014802;28;20476;-73
2022/08/21 11:05:38;;;;;;;7.20;3.83;;;26.80;1.00;;;;;;5014841;28;20410;-73
2022/08/21 11:08:18;;;;;;;9.60;3.90;;;26.60;1.00;;;;;;5014583;28;20512;-73
2022/08/21 11:10:53;;;;;;;9.00;3.83;;;26.50;1.00;;;;;;5021033;28;20469;-73
2022/08/21 11:13:33;;;;;;;10.40;4.10;;;26.30;1.00;;;;;;5018831;28;20414;-73
2022/08/21 11:16:10;;;;;;;4.97;3.83;;;26.20;1.00;;;;;;5015280;28;20942;-82
2022/08/21 11:18:44;;;;;;;4.17;3.40;;;26.10;1.00;;;;;;5014862;28;20442;-82
2022/08/21 11:21:36;;;;;;;5.43;3.60;;;26.10;1.00;;;;;;5014554;28;20408;-82
2022/08/21 11:24:20;;;;;;;8.57;3.97;;;26.10;1.00;;;;;;5024975;28;20508;-81
2022/08/21 11:27:10;;;;;;;11.60;3.83;;;26.10;1.00;;;;;;5014887;28;20406;-81
2022/08/21 11:29:39;;;;;;;6.23;3.33;;;26.10;1.00;;;;;;5029711;28;20482;-82
2022/08/21 11:32:55;;;;;;;9.50;3.80;;;26.10;1.00;;;;;;5014651;28;20429;-73
2022/08/21 11:35:47;;;;;;;6.03;3.30;;;26.20;1.00;;;;;;5031518;28;20815;-74
2022/08/21 11:38:13;;;;;;;14.17;4.10;;;26.50;1.00;;;;;;5031471;28;20426;-74
2022/08/21 11:41:05;;;;;;;6.23;3.10;;;26.80;1.00;;;;;;5031773;28;20470;-73
2022/08/21 11:43:41;;;;;;;6.67;3.17;;;27.00;1.00;;;;;;5005235;28;20180;-73
2022/08/21 11:46:13;;;;;;;5.03;3.03;;;27.30;1.00;;;;;;5031105;28;20795;-73
2022/08/21 11:48:59;;;;;;;21.83;3.40;;;27.40;1.00;;;;;;5031355;28;20455;-74
2022/08/21 11:51:33;;;;;;;11.03;3.63;;;27.60;1.00;;;;;;5028701;28;20453;-73
2022/08/21 11:54:38;;;;;;;8.40;3.47;;;27.80;1.00;;;;;;5031286;28;20416;-73
2022/08/21 11:57:24;;;;;;;4.37;2.90;;;27.80;1.00;;;;;;5031232;28;20420;-73
2022/08/21 11:59:56;;;;;;;13.93;3.70;;;27.70;1.00;;;;;;5031197;28;20920;-73
2022/08/21 12:02:29;;;;;;;8.10;3.80;;;27.80;1.00;;;;;;5015262;28;20460;-82
2022/08/21 12:05:03;;;;;;;11.43;3.00;;;27.80;1.00;;;;;;5031394;28;20513;-81
2022/08/21 12:07:36;;;;;;;7.00;2.80;;;27.70;1.00;;;;;;5031544;28;20976;-82
2022/08/21 12:10:05;;;;;;;5.40;3.20;;;27.60;1.00;;;;;;5014888;28;20442;-82
2022/08/21 12:12:36;;;;;;;9.47;3.10;;;27.50;1.00;;;;;;5033764;28;20410;-82
2022/08/21 12:15:19;;;;;;;7.53;2.87;;;27.40;1.00;;;;;;5033428;28;20421;-82
2022/08/21 12:18:20;;;;;;;6.40;2.80;;;27.30;1.00;;;;;;5033281;28;20934;-73
2022/08/21 12:21:22;;;;;;;4.23;2.87;;;27.50;1.00;;;;;;5014027;28;20454;-73
2022/08/21 12:24:01;;;;;;;6.67;2.90;;;27.60;1.00;;;;;;5021851;28;20440;-73
2022/08/21 12:26:47;;;;;;;5.17;2.63;;;27.70;1.00;;;;;;5010834;28;20518;-73
2022/08/21 12:29:35;;;;;;;5.60;2.43;;;27.90;1.00;;;;;;5010865;28;20465;-74
2022/08/21 12:32:05;;;;;;;7.90;3.10;;;27.80;1.00;;;;;;5011403;28;20908;-73
2022/08/21 12:34:52;;;;;;;5.20;2.83;;;27.90;1.00;;;;;;5027852;28;20445;-73
2022/08/21 12:37:42;;;;;;;7.23;3.10;;;27.90;1.00;;;;;;5030740;28;20429;-73
2022/08/21 12:40:20;;;;;;;6.43;3.40;;;28.00;1.00;;;;;;5030697;28;20756;-73
2022/08/21 12:42:49;;;;;;;8.50;2.93;;;28.20;1.00;;;;;;5030601;28;20421;-73
2022/08/21 12:45:30;;;;;;;8.10;3.33;;;28.60;1.00;;;;;;5030418;28;20913;-73
2022/08/21 12:48:05;;;;;;;5.17;3.13;;;28.70;1.00;;;;;;5023079;28;20519;-82
2022/08/21 12:50:56;;;;;;;6.13;3.43;;;29.00;1.00;;;;;;5010776;28;20433;-81
2022/08/21 12:53:30;;;;;;;8.70;3.07;;;29.30;1.00;;;;;;5011216;28;20430;-82
2022/08/21 12:56:02;;;;;;;4.30;2.73;;;29.60;1.00;;;;;;5016392;28;20525;-82
2022/08/21 12:58:28;;;;;;;3.37;2.77;;;29.80;1.00;;;;;;5012383;28;20415;-82
2022/08/21 13:01:07;;;;;;;9.90;3.10;;;29.70;1.00;;;;;;5026553;28;20471;-81
2022/08/21 13:03:37;;;;;;;4.70;2.60;;;29.80;1.00;;;;;;5013099;28;20476;-82
2022/08/21 13:06:05;;;;;;;10.10;3.20;;;29.60;1.00;;;;;;5012957;28;20420;-82
2022/08/21 13:08:34;;;;;;;11.63;3.50;;;29.50;1.00;;;;;;5013126;28;20471;-82
2022/08/21 13:11:04;;;;;;;7.23;2.63;;;29.30;1.00;;;;;;5015574;28;20949;-82
2022/08/21 13:13:30;;;;;;;7.33;3.00;;;29.00;1.00;;;;;;5013092;28;20411;-82
2022/08/21 13:16:05;;;;;;;10.20;2.90;;;28.90;1.00;;;;;;5013224;28;20415;-74
2022/08/21 13:18:34;;;;;;;4.60;3.17;;;28.80;1.00;;;;;;5012800;28;20481;-73
2022/08/21 13:21:10;;;;;;;4.87;2.90;;;28.50;1.00;;;;;;5012414;28;20415;-80
2022/08/21 13:23:36;;;;;;;4.87;2.80;;;28.40;1.00;;;;;;5016649;28;20454;-69
2022/08/21 13:26:13;;;;;;;20.13;3.20;;;28.40;1.00;;;;;;5025158;28;20461;-69
2022/08/21 13:28:39;;;;;;;9.87;3.00;;;28.50;1.00;;;;;;5014909;28;20774;-69
2022/08/21 13:31:10;;;;;;;11.43;2.50;;;28.40;1.00;;;;;;5019246;28;20528;-77
2022/08/21 13:33:38;;;;;;;6.90;2.80;;;28.40;1.00;;;;;;5023148;28;20461;-77
2022/08/21 13:36:16;;;;;;;5.87;2.50;;;28.20;1.00;;;;;;5023396;28;20464;-77
2022/08/21 13:38:44;;;;;;;5.87;2.47;;;28.20;1.00;;;;;;5012636;28;20423;-77
2022/08/21 13:41:15;;;;;;;6.00;2.60;;;28.30;1.00;;;;;;5012553;28;20457;-78
2022/08/21 13:43:46;;;;;;;7.57;2.50;;;28.50;1.00;;;;;;5012717;28;20411;-77
2022/08/21 13:46:14;;;;;;;5.70;2.87;;;28.80;1.00;;;;;;5012841;28;20412;-77
2022/08/21 13:48:40;;;;;;;7.50;3.00;;;28.90;1.00;;;;;;5012514;28;20950;-78
2022/08/21 13:51:06;;;;;;;4.77;3.40;;;29.10;1.00;;;;;;5012813;28;20411;-78
2022/08/21 13:53:42;;;;;;;6.13;2.70;;;29.30;1.00;;;;;;5011312;28;20418;-77
2022/08/21 13:56:08;;;;;;;9.30;2.77;;;29.70;1.00;;;;;;5012327;28;20483;-77
2022/08/21 13:58:44;;;;;;;3.60;2.83;;;29.90;1.00;;;;;;5012393;28;20903;-78
2022/08/21 14:01:19;;;;;;;9.10;2.80;;;30.10;1.00;;;;;;5012575;28;20263;-69
2022/08/21 14:03:48;;;;;;;7.90;2.83;;;30.20;1.00;;;;;;5012382;28;20968;-77
2022/08/21 14:06:17;;;;;;;11.83;3.00;;;30.40;1.00;;;;;;5012367;28;20412;-78